Time;durP1;ratioP1;P1;durP2;ratioP2;P2;SDS_P1;SDS_P2;PMS_P1;PMS_P2;Temp;Humidity;BMP_temperature;BMP_pressure;BME280_temperature;BME280_humidity;BME280_pressure;Samples;Min_cycle;Max_cycle;Signal;HPM_P1;HPM_P2
2022/05/05 00:01:01;;;;;;;;;;;14.20;90.20;;;;;;6151844;23;19925;-81
2022/05/05 00:03:28;;;;;;;;;;;14.10;89.50;;;;;;6152717;23;20249;-79
2022/05/05 00:05:55;;;;;;;;;;;14.10;88.70;;;;;;6129904;23;19972;-81
2022/05/05 00:08:22;;;;;;;;;;;14.20;88.60;;;;;;6172958;23;19921;-78
2022/05/05 00:16:19;;;;;;;;;;;14.20;87.90;;;;;;6153502;23;19920;-80
2022/05/05 00:18:46;;;;;;;;;;;14.30;87.70;;;;;;6153191;23;20004;-79
2022/05/05 00:21:13;;;;;;;;;;;14.20;87.50;;;;;;6153131;23;19972;-81
2022/05/05 00:23:40;;;;;;;;;;;14.30;87.40;;;;;;6154945;23;20401;-80
2022/05/05 00:26:06;;;;;;;;;;;14.30;87.50;;;;;;6129480;23;20350;-80
2022/05/05 00:28:33;;;;;;;;;;;14.30;87.60;;;;;;6172594;23;19976;-80
2022/05/05 00:31:00;;;;;;;;;;;14.20;88.80;;;;;;6147888;23;19921;-78
2022/05/05 00:33:26;;;;;;;;;;;14.10;88.80;;;;;;6146943;23;19949;-79
2022/05/05 00:35:53;;;;;;;;;;;14.10;88.60;;;;;;6147716;23;19940;-80
2022/05/05 00:38:20;;;;;;;;;;;14.10;89.40;;;;;;6146039;23;19972;-79
2022/05/05 00:40:47;;;;;;;;;;;13.90;90.10;;;;;;6147861;23;19924;-79
2022/05/05 00:43:13;;;;;;;;;;;13.90;90.10;;;;;;6145894;23;20305;-79
2022/05/05 00:45:40;;;;;;;;;;;14.00;90.20;;;;;;6148366;23;19925;-81
2022/05/05 00:48:08;;;;;;;;;;;14.00;89.70;;;;;;6146873;23;19924;-79
2022/05/05 00:50:35;;;;;;;;;;;14.00;89.10;;;;;;6133782;23;19921;-79
2022/05/05 00:53:02;;;;;;;;;;;14.00;88.70;;;;;;6169574;23;19963;-82
2022/05/05 00:55:31;;;;;;;;;;;14.00;88.50;;;;;;6151503;23;20334;-81
2022/05/05 00:58:02;;;;;;;;;;;13.90;88.70;;;;;;6130816;23;19925;-80
2022/05/05 01:00:31;;;;;;;;;;;13.90;88.80;;;;;;6125762;23;19940;-81
2022/05/05 01:02:58;;;;;;;;;;;13.90;90.00;;;;;;6154455;23;19948;-81
2022/05/05 01:05:27;;;;;;;;;;;13.90;90.40;;;;;;6127245;23;20697;-82
2022/05/05 01:07:57;;;;;;;;;;;13.80;90.50;;;;;;6153302;23;19921;-80
2022/05/05 01:10:27;;;;;;;;;;;13.70;91.30;;;;;;6127821;23;19967;-78
2022/05/05 01:12:54;;;;;;;;;;;13.60;91.80;;;;;;6177280;23;19927;-80
2022/05/05 01:15:21;;;;;;;;;;;13.60;91.50;;;;;;6127126;23;19954;-80
2022/05/05 01:17:48;;;;;;;;;;;13.70;91.30;;;;;;6153079;23;19920;-80
2022/05/05 01:20:18;;;;;;;;;;;13.70;91.50;;;;;;6127850;23;20254;-82
2022/05/05 01:22:46;;;;;;;;;;;13.70;91.80;;;;;;6151956;23;19921;-79
2022/05/05 01:28:14;;;;;;;;;;;13.80;91.10;;;;;;6153915;23;19928;-80
2022/05/05 01:30:41;;;;;;;;;;;13.80;91.10;;;;;;6127086;23;19920;-82
2022/05/05 01:33:12;;;;;;;;;;;13.90;91.00;;;;;;6152166;23;19920;-79
2022/05/05 01:35:40;;;;;;;;;;;13.90;90.70;;;;;;6128207;23;19925;-79
2022/05/05 01:38:10;;;;;;;;;;;13.90;90.90;;;;;;6152333;23;20160;-79
2022/05/05 01:40:39;;;;;;;;;;;13.90;90.90;;;;;;6127452;23;19928;-79
2022/05/05 01:43:06;;;;;;;;;;;13.90;90.70;;;;;;6152489;23;19972;-81
2022/05/05 01:45:34;;;;;;;;;;;13.90;90.80;;;;;;6152673;23;20347;-79
2022/05/05 01:48:01;;;;;;;;;;;13.90;90.50;;;;;;6158540;23;19960;-78
2022/05/05 01:50:30;;;;;;;;;;;13.90;90.30;;;;;;6140503;23;19924;-80
2022/05/05 01:52:58;;;;;;;;;;;13.90;89.90;;;;;;6175694;23;19925;-82
2022/05/05 01:55:26;;;;;;;;;;;13.90;90.00;;;;;;6151319;23;19975;-79
2022/05/05 01:57:52;;;;;;;;;;;13.90;89.70;;;;;;6127706;23;19928;-81
2022/05/05 02:00:20;;;;;;;;;;;13.90;89.50;;;;;;6152531;23;19925;-81
2022/05/05 02:02:47;;;;;;;;;;;13.90;89.60;;;;;;6126575;23;19921;-80
2022/05/05 02:05:14;;;;;;;;;;;13.90;89.70;;;;;;6152748;23;19922;-78
2022/05/05 02:07:42;;;;;;;;;;;13.90;89.30;;;;;;6127335;23;19956;-81
2022/05/05 02:10:09;;;;;;;;;;;13.90;89.30;;;;;;6152561;23;19920;-80
2022/05/05 02:12:36;;;;;;;;;;;13.90;90.00;;;;;;6128655;23;19966;-79
2022/05/05 02:15:06;;;;;;;;;;;13.90;89.40;;;;;;6140409;23;19927;-82
2022/05/05 02:17:41;;;;;;;;;;;13.90;89.50;;;;;;6175032;23;19931;-80
2022/05/05 02:20:09;;;;;;;;;;;13.80;89.60;;;;;;6134260;23;19948;-78
2022/05/05 02:22:35;;;;;;;;;;;13.80;90.20;;;;;;6122553;23;19921;-78
2022/05/05 02:25:02;;;;;;;;;;;13.70;90.50;;;;;;6170862;23;19948;-78
2022/05/05 02:27:29;;;;;;;;;;;13.60;90.50;;;;;;6147006;23;19925;-82
2022/05/05 02:29:56;;;;;;;;;;;13.60;90.60;;;;;;6146793;23;19928;-79
2022/05/05 02:32:23;;;;;;;;;;;13.60;90.70;;;;;;6146199;23;20069;-79
2022/05/05 02:34:50;;;;;;;;;;;13.60;90.70;;;;;;6149013;23;19925;-80
2022/05/05 02:40:02;;;;;;;;;;;13.60;90.70;;;;;;6153077;23;19925;-82
2022/05/05 02:42:29;;;;;;;;;;;13.60;90.80;;;;;;6153783;23;20310;-80
2022/05/05 02:44:56;;;;;;;;;;;13.60;90.60;;;;;;6174296;23;19928;-80
2022/05/05 02:47:22;;;;;;;;;;;13.60;90.30;;;;;;6149239;23;19945;-81
2022/05/05 02:49:49;;;;;;;;;;;13.70;90.10;;;;;;6150059;23;20373;-80
2022/05/05 02:52:17;;;;;;;;;;;13.70;89.60;;;;;;6154010;23;19920;-80
2022/05/05 02:54:54;;;;;;;;;;;13.70;90.10;;;;;;6128018;23;19925;-81
2022/05/05 02:57:23;;;;;;;;;;;13.70;90.00;;;;;;6178525;23;20347;-80
2022/05/05 02:59:56;;;;;;;;;;;13.60;90.00;;;;;;6127747;23;20004;-80
2022/05/05 03:02:23;;;;;;;;;;;13.60;90.40;;;;;;6153980;23;19920;-78
2022/05/05 03:04:50;;;;;;;;;;;13.60;90.20;;;;;;6128318;23;19940;-78
2022/05/05 03:07:17;;;;;;;;;;;13.60;90.40;;;;;;6153814;23;19921;-78
2022/05/05 03:09:44;;;;;;;;;;;13.60;90.30;;;;;;6127865;23;19921;-80
2022/05/05 03:12:11;;;;;;;;;;;13.60;90.50;;;;;;6153835;23;19971;-79
2022/05/05 03:14:38;;;;;;;;;;;13.60;90.30;;;;;;6130220;23;19948;-77
2022/05/05 03:17:05;;;;;;;;;;;13.60;90.40;;;;;;6171761;23;19920;-77
2022/05/05 03:19:32;;;;;;;;;;;13.60;90.40;;;;;;6141661;23;19921;-81
2022/05/05 03:21:58;;;;;;;;;;;13.60;90.40;;;;;;6175628;23;19920;-79
2022/05/05 03:24:25;;;;;;;;;;;13.60;90.60;;;;;;6153153;23;19924;-79
2022/05/05 03:26:52;;;;;;;;;;;13.60;90.60;;;;;;6153649;23;19928;-79
2022/05/05 03:29:21;;;;;;;;;;;13.60;90.60;;;;;;6152713;23;19975;-80
2022/05/05 03:31:48;;;;;;;;;;;13.60;90.80;;;;;;6154074;23;20266;-81
2022/05/05 03:34:15;;;;;;;;;;;13.60;90.80;;;;;;6153577;23;19925;-79
2022/05/05 03:36:42;;;;;;;;;;;13.60;90.80;;;;;;6128756;23;19921;-81
2022/05/05 03:39:08;;;;;;;;;;;13.60;90.60;;;;;;6124002;23;19932;-81
2022/05/05 03:41:35;;;;;;;;;;;13.60;90.70;;;;;;6124883;23;19948;-80
2022/05/05 03:44:03;;;;;;;;;;;13.60;90.50;;;;;;6125140;23;19921;-80
2022/05/05 03:46:30;;;;;;;;;;;13.60;90.70;;;;;;6169455;23;19932;-80
2022/05/05 03:48:57;;;;;;;;;;;13.60;90.90;;;;;;6152589;23;19935;-81
2022/05/05 03:51:24;;;;;;;;;;;13.60;90.70;;;;;;6132441;23;19972;-81
2022/05/05 03:53:53;;;;;;;;;;;13.60;90.40;;;;;;6174628;23;20435;-81
2022/05/05 03:56:20;;;;;;;;;;;13.60;90.60;;;;;;6147829;23;19929;-80
2022/05/05 03:58:47;;;;;;;;;;;13.60;90.50;;;;;;6177468;23;20304;-80
2022/05/05 04:01:13;;;;;;;;;;;13.60;90.20;;;;;;6148263;23;19921;-82
2022/05/05 04:03:43;;;;;;;;;;;13.70;90.20;;;;;;6148280;23;20377;-82
2022/05/05 04:06:10;;;;;;;;;;;13.60;90.20;;;;;;6147997;23;20261;-82
2022/05/05 04:08:37;;;;;;;;;;;13.60;91.00;;;;;;6129935;23;20010;-82
2022/05/05 04:11:05;;;;;;;;;;;13.40;91.70;;;;;;6175985;23;19920;-81
2022/05/05 04:13:31;;;;;;;;;;;13.50;91.60;;;;;;6153345;23;19975;-81
2022/05/05 04:16:00;;;;;;;;;;;13.40;91.70;;;;;;6129738;23;20408;-81
2022/05/05 04:18:26;;;;;;;;;;;13.40;91.80;;;;;;6153695;23;19921;-80
2022/05/05 04:20:53;;;;;;;;;;;13.30;92.00;;;;;;6129201;23;20350;-80
2022/05/05 04:23:20;;;;;;;;;;;13.30;92.10;;;;;;6154623;23;19929;-80
2022/05/05 04:26:06;;;;;;;;;;;13.30;91.90;;;;;;6128425;23;19929;-81
2022/05/05 04:28:33;;;;;;;;;;;13.30;91.80;;;;;;6153949;23;19928;-82
2022/05/05 04:31:00;;;;;;;;;;;13.30;91.70;;;;;;6128433;23;20417;-80
2022/05/05 04:33:27;;;;;;;;;;;13.40;91.50;;;;;;6154530;23;19928;-81
2022/05/05 04:35:54;;;;;;;;;;;13.40;91.30;;;;;;6127236;23;19972;-80
2022/05/05 04:38:20;;;;;;;;;;;13.40;91.40;;;;;;6155227;23;19924;-82
2022/05/05 04:40:49;;;;;;;;;;;13.40;91.50;;;;;;6130241;23;19921;-80
2022/05/05 04:43:17;;;;;;;;;;;13.40;91.60;;;;;;6154262;23;19928;-80
2022/05/05 04:45:43;;;;;;;;;;;13.40;91.60;;;;;;6130422;23;20302;-82
2022/05/05 04:48:10;;;;;;;;;;;13.40;91.70;;;;;;6127780;23;19925;-81
2022/05/05 04:50:37;;;;;;;;;;;13.40;91.60;;;;;;6153970;23;19928;-81
2022/05/05 04:53:04;;;;;;;;;;;13.40;91.70;;;;;;6129268;23;19988;-80
2022/05/05 04:55:31;;;;;;;;;;;13.40;92.00;;;;;;6153728;23;19928;-80
2022/05/05 04:57:58;;;;;;;;;;;13.40;92.10;;;;;;6128606;23;19920;-82
2022/05/05 05:00:24;;;;;;;;;;;13.40;92.40;;;;;;6152933;23;19971;-80
2022/05/05 05:02:51;;;;;;;;;;;13.30;92.20;;;;;;6128125;23;19921;-80
2022/05/05 05:05:18;;;;;;;;;;;13.30;92.10;;;;;;6153364;23;19970;-81
2022/05/05 05:07:45;;;;;;;;;;;13.30;92.00;;;;;;6129887;23;19976;-81
2022/05/05 05:10:12;;;;;;;;;;;13.30;92.10;;;;;;6172361;23;19921;-82
2022/05/05 05:12:38;;;;;;;;;;;13.30;92.20;;;;;;6148277;23;20306;-81
2022/05/05 05:15:06;;;;;;;;;;;13.30;92.10;;;;;;6145931;23;19921;-82
2022/05/05 05:17:33;;;;;;;;;;;13.30;92.10;;;;;;6124132;23;19972;-81
2022/05/05 05:20:00;;;;;;;;;;;13.30;92.40;;;;;;6132126;23;19928;-81
2022/05/05 05:22:27;;;;;;;;;;;13.30;92.60;;;;;;6147969;23;19920;-79
2022/05/05 05:24:53;;;;;;;;;;;13.30;92.60;;;;;;6172219;23;20342;-80
2022/05/05 05:27:21;;;;;;;;;;;13.30;92.40;;;;;;6152434;23;19927;-80
2022/05/05 05:29:47;;;;;;;;;;;13.20;92.20;;;;;;6129580;23;20365;-81
2022/05/05 05:32:14;;;;;;;;;;;13.30;92.10;;;;;;6173572;23;19921;-80
2022/05/05 05:34:41;;;;;;;;;;;13.30;92.00;;;;;;6148368;23;19937;-81
2022/05/05 05:37:08;;;;;;;;;;;13.30;92.00;;;;;;6146153;23;20353;-80
2022/05/05 05:39:34;;;;;;;;;;;13.30;92.10;;;;;;6148111;23;19925;-81
2022/05/05 05:42:01;;;;;;;;;;;13.20;92.40;;;;;;6147420;23;19932;-80
2022/05/05 05:44:28;;;;;;;;;;;13.20;92.40;;;;;;6149347;23;19929;-80
2022/05/05 05:46:55;;;;;;;;;;;13.20;92.40;;;;;;6149271;23;19921;-80
2022/05/05 05:49:21;;;;;;;;;;;13.20;92.60;;;;;;6125069;23;19921;-80
2022/05/05 05:51:48;;;;;;;;;;;13.20;92.60;;;;;;6148115;23;19928;-80
2022/05/05 05:54:17;;;;;;;;;;;13.20;92.10;;;;;;6152834;23;20405;-81
2022/05/05 05:56:45;;;;;;;;;;;13.20;91.80;;;;;;6154864;23;19921;-80
2022/05/05 05:59:12;;;;;;;;;;;13.20;92.10;;;;;;6129185;23;20346;-81
2022/05/05 06:04:24;;;;;;;;;;;13.20;91.80;;;;;;6135630;23;19927;-81
2022/05/05 06:06:52;;;;;;;;;;;13.30;91.40;;;;;;6149091;23;19928;-80
2022/05/05 06:09:18;;;;;;;;;;;13.30;91.90;;;;;;6147388;23;20393;-80
2022/05/05 06:11:45;;;;;;;;;;;13.30;91.40;;;;;;6147397;23;19976;-82
2022/05/05 06:14:12;;;;;;;;;;;13.30;91.10;;;;;;6146367;23;19980;-80
2022/05/05 06:16:39;;;;;;;;;;;13.30;90.90;;;;;;6148463;23;20385;-80
2022/05/05 06:19:06;;;;;;;;;;;13.30;90.70;;;;;;6146594;23;19920;-81
2022/05/05 06:21:32;;;;;;;;;;;13.20;91.40;;;;;;6149877;23;20389;-81
2022/05/05 06:23:59;;;;;;;;;;;13.30;91.50;;;;;;6126769;23;19921;-81
2022/05/05 06:26:27;;;;;;;;;;;13.20;91.40;;;;;;6148981;23;19921;-81
2022/05/05 06:28:55;;;;;;;;;;;13.30;91.20;;;;;;6144473;23;19921;-81
2022/05/05 06:31:22;;;;;;;;;;;13.30;91.20;;;;;;6149297;23;20338;-81
2022/05/05 06:33:49;;;;;;;;;;;13.30;91.10;;;;;;6126056;23;19948;-84
2022/05/05 06:36:16;;;;;;;;;;;13.30;91.20;;;;;;6175748;23;19921;-81
2022/05/05 06:38:43;;;;;;;;;;;13.40;91.20;;;;;;6155629;23;19971;-82
2022/05/05 06:41:13;;;;;;;;;;;13.40;91.30;;;;;;6129338;23;20000;-83
2022/05/05 06:43:40;;;;;;;;;;;13.40;91.20;;;;;;6154821;23;20027;-81
2022/05/05 06:46:07;;;;;;;;;;;13.30;91.60;;;;;;6129223;23;19945;-81
2022/05/05 06:48:34;;;;;;;;;;;13.30;91.90;;;;;;6154955;23;19925;-83
2022/05/05 06:51:01;;;;;;;;;;;13.30;92.30;;;;;;6129888;23;19924;-82
2022/05/05 06:53:28;;;;;;;;;;;13.40;91.70;;;;;;6165964;23;19971;-79
2022/05/05 06:55:58;;;;;;;;;;;13.40;91.80;;;;;;6156080;23;19925;-80
2022/05/05 06:58:25;;;;;;;;;;;13.40;91.90;;;;;;6178183;23;19925;-81
2022/05/05 07:03:38;;;;;;;;;;;13.40;92.00;;;;;;6139032;23;19929;-81
2022/05/05 07:06:09;;;;;;;;;;;13.40;92.40;;;;;;6149268;23;20309;-81
2022/05/05 07:11:23;;;;;;;;;;;13.30;93.10;;;;;;6124515;23;19921;-81
2022/05/05 07:13:50;;;;;;;;;;;13.20;93.30;;;;;;6149221;23;19925;-80
2022/05/05 07:16:17;;;;;;;;;;;13.10;93.90;;;;;;6147935;23;19921;-81
2022/05/05 07:18:44;;;;;;;;;;;13.10;93.80;;;;;;6149572;23;19999;-82
2022/05/05 07:21:11;;;;;;;;;;;13.20;93.20;;;;;;6150759;23;19921;-80
2022/05/05 07:23:37;;;;;;;;;;;13.20;92.70;;;;;;6148962;23;19921;-81
2022/05/05 07:26:04;;;;;;;;;;;13.30;92.60;;;;;;6148651;23;19921;-80
2022/05/05 07:28:31;;;;;;;;;;;13.30;92.30;;;;;;6148284;23;19925;-80
2022/05/05 07:30:58;;;;;;;;;;;13.20;92.40;;;;;;6149457;23;20350;-82
2022/05/05 07:33:25;;;;;;;;;;;13.10;92.90;;;;;;6148359;23;19952;-81
2022/05/05 07:35:52;;;;;;;;;;;13.00;93.50;;;;;;6148893;23;19925;-83
2022/05/05 07:38:18;;;;;;;;;;;12.90;94.00;;;;;;6148369;23;20255;-81
2022/05/05 07:40:47;;;;;;;;;;;12.80;94.10;;;;;;6148147;23;19944;-83
2022/05/05 07:43:14;;;;;;;;;;;12.80;94.20;;;;;;6149088;23;20361;-81
2022/05/05 07:45:41;;;;;;;;;;;12.80;94.30;;;;;;6178557;23;19925;-82
2022/05/05 07:48:08;;;;;;;;;;;12.80;94.40;;;;;;6153597;23;20305;-84
2022/05/05 07:50:35;;;;;;;;;;;12.80;94.40;;;;;;6128979;23;19940;-82
2022/05/05 07:53:02;;;;;;;;;;;12.90;93.90;;;;;;6154969;23;19924;-83
2022/05/05 07:55:29;;;;;;;;;;;12.90;93.40;;;;;;6129825;23;19924;-82
2022/05/05 07:57:57;;;;;;;;;;;13.00;93.10;;;;;;6154289;23;19921;-82
2022/05/05 08:00:24;;;;;;;;;;;13.00;93.00;;;;;;6128274;23;19948;-81
2022/05/05 08:02:51;;;;;;;;;;;12.90;93.30;;;;;;6153912;23;19976;-81
2022/05/05 08:05:18;;;;;;;;;;;12.90;93.40;;;;;;6131130;23;19972;-82
2022/05/05 08:07:47;;;;;;;;;;;12.90;93.20;;;;;;6154606;23;19928;-81
2022/05/05 08:10:14;;;;;;;;;;;12.90;93.20;;;;;;6129732;23;19928;-81
2022/05/05 08:12:42;;;;;;;;;;;12.80;93.30;;;;;;6128678;23;19920;-81
2022/05/05 08:15:10;;;;;;;;;;;12.90;93.20;;;;;;6153994;23;19921;-81
2022/05/05 08:17:37;;;;;;;;;;;12.80;93.30;;;;;;6154586;23;19920;-81
2022/05/05 08:20:05;;;;;;;;;;;12.80;93.40;;;;;;6179926;23;19924;-81
2022/05/05 08:22:32;;;;;;;;;;;12.80;93.40;;;;;;6128623;23;19976;-80
2022/05/05 08:30:34;;;;;;;;;;;12.70;92.50;;;;;;6124069;23;19928;-81
2022/05/05 08:33:01;;;;;;;;;;;12.70;92.10;;;;;;6127919;23;19928;-79
2022/05/05 08:35:27;;;;;;;;;;;12.70;92.20;;;;;;6173617;23;19971;-81
2022/05/05 08:37:55;;;;;;;;;;;12.70;92.70;;;;;;6155277;23;19934;-79
2022/05/05 08:40:25;;;;;;;;;;;12.70;92.20;;;;;;6129475;23;19921;-81
2022/05/05 08:42:52;;;;;;;;;;;12.70;92.10;;;;;;6178891;23;19995;-79
2022/05/05 08:45:19;;;;;;;;;;;12.70;91.60;;;;;;6179205;23;19920;-80
2022/05/05 08:47:50;;;;;;;;;;;12.70;91.40;;;;;;6129180;23;19921;-79
2022/05/05 08:50:18;;;;;;;;;;;12.60;91.50;;;;;;6155623;23;19925;-81
2022/05/05 08:52:49;;;;;;;;;;;12.60;91.80;;;;;;6129144;23;19929;-80
2022/05/05 08:55:17;;;;;;;;;;;12.60;91.90;;;;;;6154735;23;19975;-79
2022/05/05 08:57:44;;;;;;;;;;;12.60;91.80;;;;;;6128745;23;20294;-81
2022/05/05 09:00:13;;;;;;;;;;;12.60;91.70;;;;;;6153798;23;19931;-81
2022/05/05 09:02:40;;;;;;;;;;;12.60;91.30;;;;;;6129156;23;19976;-81
2022/05/05 09:05:08;;;;;;;;;;;12.70;91.20;;;;;;6154566;23;19921;-80
2022/05/05 09:07:45;;;;;;;;;;;12.60;90.80;;;;;;6129409;23;19928;-79
2022/05/05 09:10:12;;;;;;;;;;;12.60;89.50;;;;;;6152925;23;19920;-80
2022/05/05 09:12:38;;;;;;;;;;;12.60;88.80;;;;;;6127897;23;19948;-80
2022/05/05 09:15:10;;;;;;;;;;;12.60;88.30;;;;;;6153192;23;19975;-81
2022/05/05 09:17:37;;;;;;;;;;;12.60;86.80;;;;;;6128071;23;20247;-81
2022/05/05 09:20:04;;;;;;;;;;;12.70;86.30;;;;;;6156164;23;20277;-80
2022/05/05 09:22:37;;;;;;;;;;;12.60;86.90;;;;;;6127543;23;20231;-80
2022/05/05 09:25:05;;;;;;;;;;;12.70;85.50;;;;;;6153923;23;19927;-79
2022/05/05 09:27:33;;;;;;;;;;;12.60;85.50;;;;;;6127573;23;19921;-80
2022/05/05 09:30:05;;;;;;;;;;;12.60;84.90;;;;;;6152727;23;19979;-79
2022/05/05 09:32:34;;;;;;;;;;;12.60;84.20;;;;;;6152841;23;19921;-79
2022/05/05 09:35:03;;;;;;;;;;;12.60;84.60;;;;;;6152714;23;20404;-80
2022/05/05 09:37:30;;;;;;;;;;;12.50;85.30;;;;;;6127913;23;20381;-80
2022/05/05 09:39:58;;;;;;;;;;;12.50;85.20;;;;;;6142734;23;19972;-80
2022/05/05 09:42:35;;;;;;;;;;;12.50;85.50;;;;;;6153238;23;19925;-79
2022/05/05 09:45:28;;;;;;;;;;;12.40;85.70;;;;;;6154891;23;20289;-80
2022/05/05 09:47:59;;;;;;;;;;;12.40;85.20;;;;;;6173054;23;20311;-82
2022/05/05 09:50:28;;;;;;;;;;;12.30;87.10;;;;;;6130828;23;19921;-81
2022/05/05 09:58:35;;;;;;;;;;;12.20;87.60;;;;;;6157311;23;19921;-81
2022/05/05 10:01:06;;;;;;;;;;;12.20;86.70;;;;;;6130405;23;19971;-81
2022/05/05 10:06:21;;;;;;;;;;;12.10;87.20;;;;;;6156895;23;20334;-80
2022/05/05 10:08:54;;;;;;;;;;;12.00;88.00;;;;;;6154559;23;19996;-81
2022/05/05 10:11:22;;;;;;;;;;;12.00;87.70;;;;;;6153730;23;19940;-80
2022/05/05 10:13:52;;;;;;;;;;;12.00;86.90;;;;;;6154106;23;19920;-79
2022/05/05 10:16:19;;;;;;;;;;;12.10;87.30;;;;;;6129202;23;19921;-79
2022/05/05 10:18:46;;;;;;;;;;;12.10;86.30;;;;;;6155494;23;19920;-79
2022/05/05 10:21:16;;;;;;;;;;;12.10;86.60;;;;;;6129807;23;20338;-81
2022/05/05 10:23:51;;;;;;;;;;;12.10;87.40;;;;;;6154569;23;19924;-80
2022/05/05 10:26:22;;;;;;;;;;;12.10;86.90;;;;;;6129442;23;19980;-81
2022/05/05 10:28:49;;;;;;;;;;;12.20;85.70;;;;;;6154992;23;19927;-80
2022/05/05 10:31:31;;;;;;;;;;;12.10;87.70;;;;;;6128855;23;19953;-81
2022/05/05 10:33:59;;;;;;;;;;;12.10;86.60;;;;;;6153450;23;19921;-79
2022/05/05 10:36:29;;;;;;;;;;;12.20;88.00;;;;;;6135698;23;19921;-78
2022/05/05 10:38:56;;;;;;;;;;;12.10;88.10;;;;;;6125131;23;19927;-81
2022/05/05 10:41:29;;;;;;;;;;;12.10;88.10;;;;;;6148132;23;19925;-81
2022/05/05 10:44:15;;;;;;;;;;;12.20;87.50;;;;;;6149534;23;19921;-80
2022/05/05 10:47:03;;;;;;;;;;;12.20;88.10;;;;;;6178472;23;19928;-78
2022/05/05 10:49:30;;;;;;;;;;;12.30;88.00;;;;;;6152839;23;20187;-81
2022/05/05 10:52:12;;;;;;;;;;;12.20;87.80;;;;;;6133582;23;19921;-79
2022/05/05 10:54:40;;;;;;;;;;;12.30;87.40;;;;;;6173504;23;19976;-80
2022/05/05 10:57:25;;;;;;;;;;;12.30;86.70;;;;;;6142163;23;19985;-79
2022/05/05 11:00:10;;;;;;;;;;;12.30;86.00;;;;;;6142665;23;19927;-80
2022/05/05 11:02:38;;;;;;;;;;;12.30;86.90;;;;;;6154805;23;19969;-78
2022/05/05 11:05:21;;;;;;;;;;;12.40;87.60;;;;;;6131027;23;19947;-78
2022/05/05 11:07:49;;;;;;;;;;;12.40;86.90;;;;;;6173945;23;20223;-80
2022/05/05 11:10:35;;;;;;;;;;;12.40;85.60;;;;;;6148792;23;19927;-79
2022/05/05 11:13:02;;;;;;;;;;;12.50;84.70;;;;;;6160349;23;19981;-78
2022/05/05 11:21:32;;;;;;;;;;;12.40;84.50;;;;;;6154364;23;19925;-78
2022/05/05 11:24:02;;;;;;;;;;;12.30;86.30;;;;;;6128148;23;19921;-79
2022/05/05 11:26:31;;;;;;;;;;;12.30;85.70;;;;;;6153704;23;20297;-80
2022/05/05 11:29:00;;;;;;;;;;;12.40;84.80;;;;;;6129978;23;20239;-80
2022/05/05 11:31:31;;;;;;;;;;;12.40;85.40;;;;;;6154364;23;19975;-79
2022/05/05 11:34:00;;;;;;;;;;;12.40;85.50;;;;;;6128524;23;19927;-81
2022/05/05 11:36:27;;;;;;;;;;;12.50;85.30;;;;;;6155066;23;19943;-79
2022/05/05 11:38:54;;;;;;;;;;;12.50;84.60;;;;;;6129405;23;19925;-79
2022/05/05 11:41:21;;;;;;;;;;;12.50;85.50;;;;;;6128266;23;19975;-78
2022/05/05 11:46:33;;;;;;;;;;;12.60;85.60;;;;;;6137369;23;19995;-78
2022/05/05 11:49:00;;;;;;;;;;;12.60;85.30;;;;;;6141645;23;19921;-80
2022/05/05 11:51:31;;;;;;;;;;;12.60;84.90;;;;;;6174690;23;19921;-78
2022/05/05 11:53:59;;;;;;;;;;;12.60;84.50;;;;;;6154139;23;19925;-79
2022/05/05 11:56:27;;;;;;;;;;;12.60;84.90;;;;;;6127704;23;19921;-78
2022/05/05 12:01:42;;;;;;;;;;;12.70;84.40;;;;;;6135571;23;20343;-79
2022/05/05 12:04:10;;;;;;;;;;;12.70;83.10;;;;;;6148294;23;19984;-79
2022/05/05 12:06:38;;;;;;;;;;;12.80;84.20;;;;;;6133874;23;19945;-78
2022/05/05 12:09:06;;;;;;;;;;;12.90;81.90;;;;;;6171206;23;19936;-78
2022/05/05 12:11:38;;;;;;;;;;;13.10;81.90;;;;;;6153647;23;19951;-79
2022/05/05 12:14:06;;;;;;;;;;;13.20;80.40;;;;;;6130501;23;20333;-80
2022/05/05 12:16:34;;;;;;;;;;;13.30;80.30;;;;;;6127595;23;19995;-78
2022/05/05 12:19:10;;;;;;;;;;;13.40;80.30;;;;;;6152622;23;20249;-79
2022/05/05 12:21:55;;;;;;;;;;;13.50;81.00;;;;;;6150054;23;19921;-78
2022/05/05 12:24:23;;;;;;;;;;;13.70;80.80;;;;;;6153902;23;19924;-80
2022/05/05 12:27:04;;;;;;;;;;;13.80;79.10;;;;;;6128016;23;20045;-78
2022/05/05 12:29:38;;;;;;;;;;;13.90;77.90;;;;;;6153939;23;19925;-81
2022/05/05 12:32:08;;;;;;;;;;;14.00;77.40;;;;;;6157008;23;19929;-78
2022/05/05 12:34:35;;;;;;;;;;;14.10;75.80;;;;;;6126034;23;20342;-78
2022/05/05 12:37:15;;;;;;;;;;;14.10;77.90;;;;;;6152943;23;20254;-78
2022/05/05 12:39:54;;;;;;;;;;;14.20;76.10;;;;;;6128050;23;19980;-78
2022/05/05 12:42:23;;;;;;;;;;;14.30;74.90;;;;;;6153978;23;19921;-79
2022/05/05 12:44:50;;;;;;;;;;;14.30;74.90;;;;;;6127435;23;19936;-78
2022/05/05 12:47:21;;;;;;;;;;;14.40;74.80;;;;;;6154454;23;19920;-78
2022/05/05 12:49:48;;;;;;;;;;;14.50;74.20;;;;;;6128380;23;19920;-79
2022/05/05 13:00:52;;;;;;;;;;;14.70;71.60;;;;;;6124651;23;20315;-78
2022/05/05 13:03:39;;;;;;;;;;;14.80;71.40;;;;;;6143105;23;19976;-79
2022/05/05 13:06:06;;;;;;;;;;;14.80;71.50;;;;;;6149130;23;19949;-80
2022/05/05 13:08:49;;;;;;;;;;;14.90;71.40;;;;;;6174849;23;19996;-79
2022/05/05 13:11:17;;;;;;;;;;;14.90;71.20;;;;;;6153196;23;19928;-80
2022/05/05 13:13:47;;;;;;;;;;;15.00;71.30;;;;;;6128753;23;20326;-78
2022/05/05 13:16:14;;;;;;;;;;;15.00;71.30;;;;;;6152609;23;19971;-78
2022/05/05 13:18:41;;;;;;;;;;;15.10;69.50;;;;;;6127754;23;19932;-80
2022/05/05 13:21:08;;;;;;;;;;;15.10;70.80;;;;;;6152325;23;20337;-78
2022/05/05 13:23:35;;;;;;;;;;;15.20;70.40;;;;;;6127634;23;20368;-79
2022/05/05 13:26:03;;;;;;;;;;;15.20;71.00;;;;;;6153414;23;20338;-80
2022/05/05 13:28:31;;;;;;;;;;;15.20;71.80;;;;;;6152108;23;19928;-78
2022/05/05 13:30:58;;;;;;;;;;;15.30;70.70;;;;;;6177775;23;19921;-80
2022/05/05 13:33:25;;;;;;;;;;;15.40;71.60;;;;;;6127812;23;19932;-81
2022/05/05 13:35:52;;;;;;;;;;;15.40;70.60;;;;;;6153261;23;19931;-79
2022/05/05 13:38:19;;;;;;;;;;;15.50;69.20;;;;;;6129815;23;19988;-78
2022/05/05 13:40:46;;;;;;;;;;;15.60;68.50;;;;;;6151082;23;19928;-79
2022/05/05 13:43:13;;;;;;;;;;;15.60;68.20;;;;;;6153734;23;19927;-79
2022/05/05 13:45:39;;;;;;;;;;;15.60;68.00;;;;;;6126726;23;20307;-78
2022/05/05 13:48:06;;;;;;;;;;;15.60;70.00;;;;;;6176928;23;20329;-78
2022/05/05 13:50:34;;;;;;;;;;;15.60;69.80;;;;;;6130121;23;19996;-78
2022/05/05 13:53:00;;;;;;;;;;;15.70;68.00;;;;;;6152779;23;19924;-79
2022/05/05 13:55:28;;;;;;;;;;;15.70;68.40;;;;;;6128086;23;20303;-78
2022/05/05 13:57:58;;;;;;;;;;;15.70;68.10;;;;;;6151606;23;20222;-78
2022/05/05 14:00:25;;;;;;;;;;;15.80;68.70;;;;;;6128948;23;20390;-80
2022/05/05 14:02:52;;;;;;;;;;;15.90;65.60;;;;;;6152310;23;19924;-79
2022/05/05 14:05:19;;;;;;;;;;;15.90;65.20;;;;;;6154532;23;19920;-79
2022/05/05 14:13:16;;;;;;;;;;;16.00;65.90;;;;;;6154519;23;19931;-78
2022/05/05 14:15:43;;;;;;;;;;;16.10;63.60;;;;;;6150497;23;19948;-79
2022/05/05 14:18:10;;;;;;;;;;;16.20;64.80;;;;;;6155511;23;20448;-80
2022/05/05 14:20:37;;;;;;;;;;;16.20;65.90;;;;;;6154765;23;19920;-81
2022/05/05 14:23:04;;;;;;;;;;;16.30;65.00;;;;;;6133623;23;19928;-80
2022/05/05 14:25:31;;;;;;;;;;;16.40;64.10;;;;;;6175994;23;19991;-81
2022/05/05 14:27:58;;;;;;;;;;;16.40;65.30;;;;;;6136466;23;19921;-79
2022/05/05 14:30:25;;;;;;;;;;;16.40;64.70;;;;;;6124744;23;20059;-80
2022/05/05 14:32:52;;;;;;;;;;;16.50;64.30;;;;;;6174976;23;19925;-78
2022/05/05 14:35:20;;;;;;;;;;;16.50;63.70;;;;;;6155422;23;20000;-80
2022/05/05 14:37:47;;;;;;;;;;;16.50;65.10;;;;;;6128015;23;20338;-80
2022/05/05 14:40:15;;;;;;;;;;;16.50;64.50;;;;;;6152817;23;19920;-78
2022/05/05 14:42:41;;;;;;;;;;;16.60;64.30;;;;;;6131069;23;20425;-78
2022/05/05 14:45:10;;;;;;;;;;;16.70;64.30;;;;;;6153923;23;20265;-80
2022/05/05 14:47:38;;;;;;;;;;;16.70;64.50;;;;;;6130514;23;19972;-78
2022/05/05 14:50:05;;;;;;;;;;;16.80;64.10;;;;;;6179774;23;19924;-77
2022/05/05 14:52:31;;;;;;;;;;;16.80;64.70;;;;;;6128893;23;20275;-78
2022/05/05 14:54:58;;;;;;;;;;;17.00;66.30;;;;;;6156355;23;19925;-80
2022/05/05 14:57:26;;;;;;;;;;;16.90;65.10;;;;;;6130410;23;19921;-80
2022/05/05 14:59:54;;;;;;;;;;;16.90;66.80;;;;;;6172775;23;19935;-81
2022/05/05 15:02:21;;;;;;;;;;;16.80;67.10;;;;;;6148260;23;19921;-80
2022/05/05 15:04:48;;;;;;;;;;;16.80;66.10;;;;;;6148873;23;19921;-79
2022/05/05 15:07:15;;;;;;;;;;;16.90;66.30;;;;;;6149184;23;20004;-79
2022/05/05 15:09:42;;;;;;;;;;;17.00;65.80;;;;;;6148427;23;19921;-80
2022/05/05 15:12:12;;;;;;;;;;;17.00;67.40;;;;;;6148249;23;20000;-81
2022/05/05 15:14:39;;;;;;;;;;;16.90;66.70;;;;;;6150514;23;19927;-78
2022/05/05 15:17:07;;;;;;;;;;;16.90;68.60;;;;;;6125655;23;19925;-79
2022/05/05 15:19:34;;;;;;;;;;;16.90;69.40;;;;;;6148824;23;19921;-81
2022/05/05 15:22:03;;;;;;;;;;;16.70;69.70;;;;;;6150250;23;19927;-79